Time;durP1;ratioP1;P1;durP2;ratioP2;P2;SDS_P1;SDS_P2;PMS_P1;PMS_P2;Temp;Humidity;BMP_temperature;BMP_pressure;BME280_temperature;BME280_humidity;BME280_pressure;Samples;Min_cycle;Max_cycle;Signal;HPM_P1;HPM_P2
2022/10/10 00:00:50;;;;;;;3.30;2.30;;;;;;;22.33;61.74;99008.97;2057428;28;20053;-43
2022/10/10 00:01:51;;;;;;;4.45;2.30;;;;;;;22.33;62.06;99011.69;2060928;28;20095;-44
2022/10/10 00:02:52;;;;;;;2.65;2.45;;;;;;;22.32;62.08;99005.44;2059019;28;20103;-44
2022/10/10 00:03:55;;;;;;;5.28;2.90;;;;;;;22.33;61.80;99006.28;2055994;28;20992;-44
2022/10/10 00:04:57;;;;;;;3.00;2.40;;;;;;;22.33;61.92;99011.69;2060473;28;20045;-44
2022/10/10 00:05:57;;;;;;;3.35;2.80;;;;;;;22.34;61.91;99016.03;2062223;28;20053;-44
2022/10/10 00:06:59;;;;;;;3.35;2.70;;;;;;;22.31;62.14;99003.78;2061109;28;20689;-44
2022/10/10 00:08:00;;;;;;;3.75;2.63;;;;;;;22.33;61.93;99004.38;2056400;28;20574;-44
2022/10/10 00:09:02;;;;;;;4.75;2.90;;;;;;;22.31;61.81;99006.47;2060498;28;20050;-44
2022/10/10 00:10:03;;;;;;;3.63;2.58;;;;;;;22.32;61.86;99000.03;2056563;28;20053;-47
2022/10/10 00:11:06;;;;;;;3.22;2.35;;;;;;;22.33;61.74;99006.28;2056194;28;20046;-44
2022/10/10 00:12:07;;;;;;;3.63;2.58;;;;;;;22.34;61.84;99010.63;2058672;28;20053;-46
2022/10/10 00:13:09;;;;;;;4.60;2.72;;;;;;;22.33;62.06;99006.28;2056767;28;20056;-45
2022/10/10 00:14:09;;;;;;;3.63;2.55;;;;;;;22.30;62.16;99007.53;2057393;28;20111;-45
2022/10/10 00:15:12;;;;;;;3.28;2.33;;;;;;;22.32;61.89;99010.84;2057328;28;20133;-44
2022/10/10 00:16:14;;;;;;;3.15;2.50;;;;;;;22.32;61.84;99010.84;2056308;28;20072;-45
2022/10/10 00:17:16;;;;;;;2.78;2.42;;;;;;;22.30;61.94;99002.94;2058542;28;20113;-44
2022/10/10 00:18:16;;;;;;;4.50;2.80;;;;;;;22.31;62.08;99003.78;2059204;28;20413;-44
2022/10/10 00:19:19;;;;;;;2.80;2.35;;;;;;;22.33;62.09;99008.97;2056519;28;20116;-44
2022/10/10 00:20:21;;;;;;;3.33;2.50;;;;;;;22.30;62.10;98999.44;2056456;28;20056;-44
2022/10/10 00:21:22;;;;;;;3.55;2.38;;;;;;;22.31;61.85;99006.47;2057952;28;20049;-44
2022/10/10 00:22:23;;;;;;;3.60;2.20;;;;;;;22.31;62.02;99006.47;2054894;28;20762;-44
2022/10/10 00:23:25;;;;;;;4.32;2.85;;;;;;;22.30;61.99;99007.53;2054723;28;20081;-44
2022/10/10 00:24:25;;;;;;;3.10;2.40;;;;;;;22.32;61.97;99001.94;2058200;28;20053;-44
2022/10/10 00:25:28;;;;;;;4.97;2.60;;;;;;;22.30;61.90;99008.34;2056058;28;20075;-44
2022/10/10 00:26:29;;;;;;;3.55;2.22;;;;;;;22.30;62.05;98999.44;2058450;28;20083;-44
2022/10/10 00:27:30;;;;;;;3.95;2.75;;;;;;;22.30;62.02;99005.66;2055379;28;20041;-44
2022/10/10 00:28:31;;;;;;;3.45;2.67;;;;;;;22.31;61.94;99003.78;2057919;28;20062;-43
2022/10/10 00:29:33;;;;;;;4.32;2.70;;;;;;;22.32;61.98;99010.84;2058150;28;20065;-45
2022/10/10 00:30:33;;;;;;;3.25;2.67;;;;;;;22.31;62.02;99009.19;2057142;28;20042;-44
2022/10/10 00:31:35;;;;;;;2.80;2.55;;;;;;;22.31;61.86;99014.59;2056203;28;20042;-44
2022/10/10 00:32:36;;;;;;;4.45;2.65;;;;;;;22.29;61.87;99006.72;2057021;28;21123;-44
2022/10/10 00:33:38;;;;;;;2.50;2.30;;;;;;;22.29;62.02;99012.13;2059802;28;20054;-45
2022/10/10 00:34:40;;;;;;;4.32;2.80;;;;;;;22.31;62.02;99009.19;2045999;28;20738;-46
2022/10/10 00:35:42;;;;;;;3.03;2.10;;;;;;;22.29;61.89;99006.72;2054276;28;20089;-44
2022/10/10 00:36:43;;;;;;;4.13;3.53;;;;;;;22.29;62.12;99000.47;2057187;28;20080;-44
2022/10/10 00:37:46;;;;;;;4.38;2.47;;;;;;;22.30;61.92;99007.53;2058055;28;20049;-44
2022/10/10 00:38:46;;;;;;;4.22;2.50;;;;;;;22.29;62.19;99009.41;2057400;28;20581;-44
2022/10/10 00:39:48;;;;;;;2.70;2.50;;;;;;;22.30;61.99;99002.94;2054843;28;20061;-45
2022/10/10 00:40:53;;;;;;;4.75;3.00;;;;;;;22.29;62.02;99005.88;2050864;28;20160;-45
2022/10/10 00:41:54;;;;;;;5.38;2.83;;;;;;;22.28;62.10;98996.94;2052668;28;20042;-46
2022/10/10 00:42:55;;;;;;;3.35;2.50;;;;;;;22.29;62.10;99000.47;2055514;28;20069;-45
2022/10/10 00:44:02;;;;;;;2.65;2.35;;;;;;;22.28;61.81;99002.34;2056804;28;20081;-45
2022/10/10 00:45:26;;;;;;;2.72;2.42;;;;;;;22.24;62.16;98992.19;2052340;28;20051;-46
2022/10/10 00:46:28;;;;;;;2.92;2.22;;;;;;;22.25;62.10;98999.25;2056197;28;20054;-46
2022/10/10 00:47:29;;;;;;;3.00;2.50;;;;;;;22.27;61.91;99005.28;2055587;28;20045;-45
2022/10/10 00:48:32;;;;;;;3.03;2.75;;;;;;;22.26;62.01;98995.53;2058471;28;20049;-46
2022/10/10 00:49:35;;;;;;;3.80;2.33;;;;;;;22.28;61.90;98990.69;2055322;28;20108;-44
2022/10/10 00:50:44;;;;;;;3.75;2.75;;;;;;;22.28;61.93;98988.00;2056929;28;20094;-44
2022/10/10 00:51:47;;;;;;;2.90;2.58;;;;;;;22.29;62.06;98997.78;2055321;28;20054;-44
2022/10/10 00:52:50;;;;;;;3.63;2.47;;;;;;;22.27;62.02;98994.47;2056591;28;20104;-45
2022/10/10 00:53:54;;;;;;;4.15;2.92;;;;;;;22.28;61.95;98993.41;2056975;28;20054;-43
2022/10/10 00:54:56;;;;;;;3.22;2.45;;;;;;;22.27;62.05;98997.16;2055730;28;20049;-44
2022/10/10 00:55:58;;;;;;;5.88;2.58;;;;;;;22.27;61.87;98998.00;2055953;28;20151;-44
2022/10/10 00:57:05;;;;;;;3.63;2.30;;;;;;;22.26;61.96;99001.75;2059030;28;20053;-44
2022/10/10 00:58:08;;;;;;;3.08;2.70;;;;;;;22.27;62.05;98997.16;2054866;28;20054;-44
2022/10/10 00:59:11;;;;;;;3.83;2.45;;;;;;;22.27;61.97;98997.16;2057262;28;25402;-45
2022/10/10 01:00:13;;;;;;;3.67;2.75;;;;;;;22.27;62.01;98998.00;2056672;28;20081;-44
2022/10/10 01:01:14;;;;;;;3.83;2.72;;;;;;;22.28;61.97;98990.69;2057467;28;20045;-44
2022/10/10 01:02:15;;;;;;;4.50;3.00;;;;;;;22.26;62.01;98990.94;2055012;28;20050;-44
2022/10/10 01:03:17;;;;;;;5.03;2.70;;;;;;;22.27;61.98;98984.47;2054885;28;20050;-44
2022/10/10 01:04:32;;;;;;;3.22;2.45;;;;;;;22.25;62.04;98989.25;2061530;28;20054;-44
2022/10/10 01:05:34;;;;;;;2.83;2.20;;;;;;;22.24;62.00;98987.63;2055015;28;20049;-44
2022/10/10 01:06:36;;;;;;;3.88;2.75;;;;;;;22.26;61.92;98977.44;2052789;28;20167;-44
2022/10/10 01:07:39;;;;;;;3.13;2.42;;;;;;;22.26;62.03;98979.31;2057314;28;20050;-44
2022/10/10 01:08:40;;;;;;;4.30;2.67;;;;;;;22.26;62.09;98982.84;2056832;28;20144;-44
2022/10/10 01:09:44;;;;;;;2.67;2.28;;;;;;;22.26;62.01;98985.53;2060152;28;20085;-44
2022/10/10 01:10:57;;;;;;;3.72;2.30;;;;;;;22.26;61.76;98980.13;2062167;28;20050;-44
2022/10/10 01:12:11;;;;;;;4.70;2.63;;;;;;;22.24;61.91;98984.09;2056447;28;20088;-44
2022/10/10 01:13:21;;;;;;;2.63;2.10;;;;;;;22.24;61.94;98984.09;2057538;28;20057;-43
2022/10/10 01:14:38;;;;;;;3.28;2.50;;;;;;;22.23;62.10;98979.72;2054758;28;20483;-44
2022/10/10 01:15:48;;;;;;;2.47;2.25;;;;;;;22.22;62.28;98983.47;2056899;28;20605;-44
2022/10/10 01:16:56;;;;;;;3.72;2.13;;;;;;;22.23;62.07;98982.41;2056096;28;20081;-45
2022/10/10 01:18:08;;;;;;;2.97;2.42;;;;;;;22.25;62.09;98983.03;2045851;28;20111;-44
2022/10/10 01:19:29;;;;;;;3.17;2.58;;;;;;;22.22;62.17;98976.19;2056353;28;20185;-43
2022/10/10 01:21:09;;;;;;;2.45;2.25;;;;;;;22.16;62.22;98979.75;2056372;28;20537;-43
2022/10/10 01:22:25;;;;;;;3.25;2.40;;;;;;;22.17;62.18;98973.28;2038248;28;20055;-44
2022/10/10 01:24:04;;;;;;;3.08;2.67;;;;;;;22.16;62.42;98978.94;2038639;28;20074;-44
2022/10/10 01:25:16;;;;;;;2.47;2.05;;;;;;;22.16;62.22;98974.34;2031361;28;20467;-43
2022/10/10 01:26:45;;;;;;;3.97;2.90;;;;;;;22.19;62.16;98973.13;2030937;28;20051;-43
2022/10/10 01:27:53;;;;;;;2.90;2.28;;;;;;;22.19;62.19;98973.13;2032610;28;20654;-43
2022/10/10 01:29:01;;;;;;;3.00;2.42;;;;;;;22.20;62.01;98977.47;2031307;28;20082;-47
2022/10/10 01:30:07;;;;;;;3.47;2.35;;;;;;;22.20;62.17;98972.88;2032152;28;20107;-44
2022/10/10 01:31:11;;;;;;;3.92;2.60;;;;;;;22.21;62.19;98973.72;2040482;28;20057;-43
2022/10/10 01:32:16;;;;;;;3.75;2.33;;;;;;;22.22;62.01;98973.50;2047672;28;20667;-44
2022/10/10 01:33:26;;;;;;;4.47;2.30;;;;;;;22.22;62.01;98969.97;2048578;28;20058;-44
2022/10/10 01:34:36;;;;;;;3.67;3.00;;;;;;;22.22;62.05;98969.97;2047995;28;20703;-44
2022/10/10 01:35:48;;;;;;;4.87;2.27;;;;;;;22.19;62.19;98973.13;2048475;28;20065;-44
2022/10/10 01:36:56;;;;;;;2.22;2.03;;;;;;;22.18;62.07;98966.88;2048297;28;20704;-43
2022/10/10 01:38:10;;;;;;;3.65;2.47;;;;;;;22.19;62.06;98968.53;2052469;28;20081;-44
2022/10/10 01:39:16;;;;;;;4.60;2.40;;;;;;;22.21;62.03;98968.31;2052417;28;20050;-44
2022/10/10 01:40:24;;;;;;;2.88;2.30;;;;;;;22.21;62.00;98965.63;2054907;28;20054;-44
2022/10/10 01:41:30;;;;;;;3.58;2.55;;;;;;;22.22;62.14;98973.50;2051246;28;20117;-43
2022/10/10 01:42:38;;;;;;;3.88;2.20;;;;;;;22.21;62.09;98971.03;2049288;28;20070;-44
2022/10/10 01:43:40;;;;;;;4.70;2.67;;;;;;;22.23;62.10;98974.31;2051712;28;20047;-43
2022/10/10 01:44:44;;;;;;;3.75;2.60;;;;;;;22.23;62.11;98971.63;2055123;28;20050;-44
2022/10/10 01:45:47;;;;;;;4.15;3.00;;;;;;;22.21;62.09;98966.44;2054165;28;20053;-45
2022/10/10 01:46:48;;;;;;;3.55;2.58;;;;;;;22.23;62.05;98969.75;2046310;28;20108;-44
2022/10/10 01:47:52;;;;;;;2.88;2.42;;;;;;;22.23;62.13;98971.63;2051729;28;20109;-44
2022/10/10 01:48:56;;;;;;;4.28;2.38;;;;;;;22.22;62.03;98975.38;2046631;28;20042;-44
2022/10/10 01:50:03;;;;;;;3.97;2.38;;;;;;;22.21;61.96;98973.72;2048678;28;20643;-44
2022/10/10 01:51:18;;;;;;;3.75;2.42;;;;;;;22.21;62.07;98971.03;2048311;28;20063;-44
2022/10/10 01:52:31;;;;;;;3.13;2.45;;;;;;;22.21;62.21;98976.44;2050054;28;20057;-44
2022/10/10 01:53:42;;;;;;;4.32;2.42;;;;;;;22.18;62.14;98976.88;2050649;28;21376;-43
2022/10/10 01:54:53;;;;;;;2.88;2.47;;;;;;;22.19;62.20;98965.00;2051072;28;20063;-45
2022/10/10 01:56:04;;;;;;;3.50;2.55;;;;;;;22.19;61.95;98973.94;2050511;28;20054;-45
2022/10/10 01:57:17;;;;;;;2.30;2.00;;;;;;;22.18;62.17;98968.78;2054188;28;20055;-44
2022/10/10 01:58:37;;;;;;;3.53;2.30;;;;;;;22.17;61.99;98965.19;2052134;28;20053;-44
2022/10/10 01:59:45;;;;;;;3.50;2.60;;;;;;;22.17;62.15;98969.75;2054748;28;20042;-43
2022/10/10 02:00:58;;;;;;;5.32;2.22;;;;;;;22.18;62.38;98976.88;2052072;28;20051;-44
2022/10/10 02:02:07;;;;;;;4.35;2.65;;;;;;;22.17;61.96;98965.19;2052584;28;20049;-46
2022/10/10 02:03:16;;;;;;;2.55;2.22;;;;;;;22.18;61.98;98969.59;2051213;28;20062;-44
2022/10/10 02:04:28;;;;;;;5.28;3.03;;;;;;;22.18;62.07;98972.28;2055675;28;20100;-44
2022/10/10 02:05:40;;;;;;;2.78;2.58;;;;;;;22.19;62.26;98965.00;2049473;28;20106;-44
2022/10/10 02:06:45;;;;;;;4.50;2.33;;;;;;;22.17;62.16;98969.75;2050085;28;20066;-43
2022/10/10 02:07:50;;;;;;;12.35;2.85;;;;;;;22.19;62.12;98973.13;2052528;28;20058;-44
2022/10/10 02:08:57;;;;;;;3.72;2.25;;;;;;;22.19;62.04;98971.22;2051332;28;20055;-45
2022/10/10 02:10:02;;;;;;;4.85;2.78;;;;;;;22.20;62.16;98975.56;2053044;28;20434;-44
2022/10/10 02:11:05;;;;;;;7.65;2.35;;;;;;;22.20;61.92;98974.75;2049581;28;20116;-44
2022/10/10 02:12:09;;;;;;;2.92;2.50;;;;;;;22.20;61.97;98969.34;2048389;28;20051;-44
2022/10/10 02:13:11;;;;;;;3.15;2.45;;;;;;;22.19;62.03;98971.22;2054084;28;20113;-44
2022/10/10 02:14:17;;;;;;;3.10;2.30;;;;;;;22.21;61.80;98971.03;2053939;28;20051;-43
2022/10/10 02:15:23;;;;;;;3.38;2.38;;;;;;;22.20;61.96;98969.34;2048400;28;20050;-44
2022/10/10 02:16:29;;;;;;;2.85;2.33;;;;;;;22.20;62.00;98963.94;2053299;28;20057;-45
2022/10/10 02:17:34;;;;;;;3.25;2.55;;;;;;;22.18;62.12;98966.88;2051283;28;20058;-45
2022/10/10 02:18:36;;;;;;;2.38;2.17;;;;;;;22.19;61.91;98967.72;2053965;28;20058;-47
2022/10/10 02:19:38;;;;;;;3.13;2.55;;;;;;;22.19;61.91;98959.59;2049697;28;20051;-45
2022/10/10 02:20:42;;;;;;;5.38;2.13;;;;;;;22.19;61.90;98971.22;2048551;28;20112;-45
2022/10/10 02:21:45;;;;;;;3.78;2.55;;;;;;;22.19;61.83;98962.31;2051068;28;20043;-48
2022/10/10 02:22:50;;;;;;;2.55;2.17;;;;;;;22.19;61.89;98963.13;2047255;28;20058;-46
2022/10/10 02:23:54;;;;;;;3.33;2.72;;;;;;;22.19;62.16;98965.00;2051288;28;20042;-49
2022/10/10 02:24:56;;;;;;;2.97;2.15;;;;;;;22.19;62.06;98962.31;2051430;28;20064;-44
2022/10/10 02:25:57;;;;;;;3.40;2.92;;;;;;;22.18;61.98;98966.88;2053268;28;20113;-45
2022/10/10 02:27:03;;;;;;;2.72;2.13;;;;;;;22.20;62.07;98966.66;2046727;28;20560;-45
2022/10/10 02:28:09;;;;;;;3.78;2.45;;;;;;;22.19;62.15;98967.72;2051007;28;20566;-44
2022/10/10 02:29:16;;;;;;;3.92;2.95;;;;;;;22.18;61.86;98966.06;2050721;28;20055;-43
2022/10/10 02:30:17;;;;;;;4.68;2.33;;;;;;;22.17;61.92;98967.06;2051452;28;20501;-46
2022/10/10 02:31:27;;;;;;;2.85;2.55;;;;;;;22.17;62.16;98964.34;2051692;28;20053;-46
2022/10/10 02:32:31;;;;;;;3.35;2.75;;;;;;;22.18;61.88;98968.78;2048137;28;20514;-45
2022/10/10 02:33:41;;;;;;;3.30;2.35;;;;;;;22.19;62.02;98962.31;2050115;28;20047;-44
2022/10/10 02:34:47;;;;;;;3.10;2.60;;;;;;;22.16;62.22;98960.84;2049312;28;20051;-45
2022/10/10 02:35:53;;;;;;;3.45;2.10;;;;;;;22.17;61.89;98964.34;2057313;28;20934;-45
2022/10/10 02:37:02;;;;;;;2.85;2.30;;;;;;;22.16;61.89;98962.72;2049539;28;20068;-47
2022/10/10 02:38:07;;;;;;;3.33;2.38;;;;;;;22.17;61.90;98958.97;2049973;28;20497;-45
2022/10/10 02:39:11;;;;;;;2.55;2.30;;;;;;;22.17;62.16;98959.78;2047692;28;20124;-45
2022/10/10 02:40:20;;;;;;;3.38;2.20;;;;;;;22.17;62.01;98972.47;2053754;28;20080;-43
2022/10/10 02:41:22;;;;;;;6.75;2.20;;;;;;;22.16;61.94;98960.00;2053333;28;20890;-48
2022/10/10 02:42:25;;;;;;;3.67;2.47;;;;;;;22.18;61.71;98960.66;2049695;28;24204;-48
2022/10/10 02:43:26;;;;;;;3.25;2.30;;;;;;;22.18;62.07;98960.66;2048954;28;20712;-44
2022/10/10 02:44:28;;;;;;;2.65;2.45;;;;;;;22.19;61.98;98956.91;2046706;28;20047;-48
2022/10/10 02:45:31;;;;;;;2.50;2.17;;;;;;;22.19;61.82;98965.00;2049934;28;20050;-47
2022/10/10 02:46:35;;;;;;;2.53;2.00;;;;;;;22.17;61.79;98962.47;2049135;28;20129;-43
2022/10/10 02:47:35;;;;;;;2.85;2.10;;;;;;;22.17;61.91;98967.06;2051401;28;20051;-45
2022/10/10 02:48:38;;;;;;;3.85;2.10;;;;;;;22.17;61.84;98961.66;2052350;28;20703;-46
2022/10/10 02:49:39;;;;;;;2.53;2.05;;;;;;;22.16;61.96;98960.84;2055313;28;20058;-47
2022/10/10 02:50:41;;;;;;;3.55;2.72;;;;;;;22.17;61.91;98958.97;2050644;28;20042;-47
2022/10/10 02:51:41;;;;;;;3.55;2.33;;;;;;;22.17;62.13;98956.25;2049244;28;20140;-46
2022/10/10 02:52:43;;;;;;;3.85;2.78;;;;;;;22.18;62.01;98955.25;2052669;28;20054;-45
2022/10/10 02:53:44;;;;;;;3.13;2.35;;;;;;;22.17;62.10;98956.25;2051124;28;20710;-47
2022/10/10 02:54:46;;;;;;;4.07;2.42;;;;;;;22.18;62.00;98955.25;2050549;28;20047;-46
2022/10/10 02:55:46;;;;;;;2.72;2.10;;;;;;;22.19;62.03;98959.59;2055926;28;20043;-45
2022/10/10 02:56:48;;;;;;;2.60;2.13;;;;;;;22.18;61.78;98956.09;2053987;28;20535;-44
2022/10/10 02:57:49;;;;;;;4.13;2.40;;;;;;;22.18;61.90;98955.25;2052740;28;20061;-44
2022/10/10 02:58:51;;;;;;;3.00;2.30;;;;;;;22.16;61.83;98951.91;2053282;28;20776;-44
2022/10/10 02:59:51;;;;;;;4.15;2.72;;;;;;;22.17;62.00;98957.06;2053510;28;20139;-45
2022/10/10 03:00:53;;;;;;;4.13;2.55;;;;;;;22.18;61.90;98960.66;2049900;28;20669;-45
2022/10/10 03:01:55;;;;;;;2.53;2.17;;;;;;;22.17;61.87;98956.25;2054645;28;20046;-45
2022/10/10 03:02:57;;;;;;;4.07;2.58;;;;;;;22.16;61.89;98955.44;2042679;28;21809;-45
2022/10/10 03:03:58;;;;;;;2.92;2.13;;;;;;;22.17;61.90;98957.06;2049094;28;20120;-45
2022/10/10 03:04:59;;;;;;;2.55;2.22;;;;;;;22.17;61.85;98956.25;2047791;28;20058;-48
2022/10/10 03:06:01;;;;;;;2.65;2.00;;;;;;;22.16;61.75;98951.91;2047133;28;20096;-44
2022/10/10 03:07:03;;;;;;;3.42;2.10;;;;;;;22.17;61.97;98956.25;2048464;28;20504;-48
2022/10/10 03:08:04;;;;;;;2.35;2.10;;;;;;;22.16;61.82;98955.44;2046838;28;20054;-46
2022/10/10 03:09:06;;;;;;;3.40;2.45;;;;;;;22.16;62.00;98955.44;2048578;28;20058;-43
2022/10/10 03:10:07;;;;;;;4.35;2.50;;;;;;;22.16;62.08;98957.31;2048033;28;20047;-47
2022/10/10 03:11:09;;;;;;;3.20;2.55;;;;;;;22.16;62.06;98955.44;2046251;28;20070;-47
2022/10/10 03:12:10;;;;;;;2.72;2.22;;;;;;;22.15;61.95;98952.94;2049422;28;20054;-45
2022/10/10 03:13:11;;;;;;;3.95;2.58;;;;;;;22.15;62.05;98956.50;2048600;28;20069;-46
2022/10/10 03:14:12;;;;;;;2.72;2.28;;;;;;;22.14;62.10;98954.81;2048730;28;20054;-46
2022/10/10 03:15:14;;;;;;;2.22;2.03;;;;;;;22.16;62.09;98957.31;2048560;28;20641;-46
2022/10/10 03:16:14;;;;;;;2.60;2.03;;;;;;;22.16;61.71;98957.31;2046580;28;20062;-46
2022/10/10 03:17:18;;;;;;;2.47;2.28;;;;;;;22.17;61.87;98961.66;2050719;28;20490;-44
2022/10/10 03:18:19;;;;;;;2.97;2.22;;;;;;;22.17;62.07;98956.25;2045209;28;20050;-44
2022/10/10 03:19:21;;;;;;;2.33;2.13;;;;;;;22.15;62.03;98956.50;2052446;28;20117;-46
2022/10/10 03:20:21;;;;;;;4.05;2.08;;;;;;;22.16;61.80;98957.31;2052176;28;20126;-44
2022/10/10 03:21:23;;;;;;;2.90;2.15;;;;;;;22.14;62.15;98954.81;2051899;28;20062;-47
2022/10/10 03:22:24;;;;;;;2.13;1.90;;;;;;;22.15;61.88;98953.78;2047239;28;20076;-45
2022/10/10 03:23:26;;;;;;;3.55;2.20;;;;;;;22.14;61.91;98954.81;2053364;28;20054;-44
2022/10/10 03:24:27;;;;;;;2.55;2.35;;;;;;;22.15;61.88;98956.50;2052208;28;20059;-44
2022/10/10 03:25:29;;;;;;;3.45;2.40;;;;;;;22.15;61.94;98950.22;2050993;28;20134;-44
2022/10/10 03:26:30;;;;;;;4.63;2.30;;;;;;;22.15;61.95;98956.50;2051802;28;20056;-44
2022/10/10 03:27:31;;;;;;;2.88;2.22;;;;;;;22.15;61.67;98955.63;2053242;28;20706;-44
2022/10/10 03:28:32;;;;;;;3.85;2.47;;;;;;;22.15;62.00;98950.22;2052630;28;20132;-45
2022/10/10 03:29:34;;;;;;;3.25;2.17;;;;;;;22.14;61.94;98959.41;2048908;28;20116;-43
2022/10/10 03:30:35;;;;;;;2.28;2.03;;;;;;;22.14;61.88;98945.88;2051025;28;20111;-45
2022/10/10 03:31:36;;;;;;;3.35;2.45;;;;;;;22.14;62.04;98951.28;2051128;28;20055;-43
2022/10/10 03:32:39;;;;;;;3.97;2.42;;;;;;;22.16;61.76;98951.91;2049439;28;20135;-44
2022/10/10 03:33:40;;;;;;;3.20;2.22;;;;;;;22.14;61.86;98954.81;2051613;28;20109;-44
2022/10/10 03:34:41;;;;;;;1.92;1.70;;;;;;;22.14;61.92;98945.88;2047656;28;20051;-44
2022/10/10 03:35:43;;;;;;;2.90;2.45;;;;;;;22.13;61.84;98953.19;2042385;28;20586;-44
2022/10/10 03:36:45;;;;;;;3.75;2.65;;;;;;;22.14;62.12;98943.19;2045361;28;20054;-45
2022/10/10 03:37:45;;;;;;;3.15;1.88;;;;;;;22.14;61.91;98954.00;2049909;28;20062;-45
2022/10/10 03:38:47;;;;;;;3.00;2.05;;;;;;;22.13;62.02;98953.19;2052217;28;20046;-45
2022/10/10 03:39:48;;;;;;;2.40;2.10;;;;;;;22.12;62.03;98953.38;2047684;28;20104;-45
2022/10/10 03:40:50;;;;;;;2.00;1.90;;;;;;;22.13;61.94;98949.66;2049421;28;20117;-45
2022/10/10 03:41:50;;;;;;;2.35;1.70;;;;;;;22.13;61.86;98950.47;2052764;28;20313;-47
2022/10/10 03:42:52;;;;;;;3.30;2.30;;;;;;;22.13;61.88;98950.47;2051486;28;20121;-45
2022/10/10 03:43:53;;;;;;;3.60;2.50;;;;;;;22.13;61.72;98955.06;2052767;28;20412;-47
2022/10/10 03:44:55;;;;;;;2.42;2.22;;;;;;;22.13;61.70;98953.19;2052350;28;20109;-46
2022/10/10 03:45:55;;;;;;;3.17;2.25;;;;;;;22.13;61.94;98960.47;2045364;28;20050;-46
2022/10/10 03:46:57;;;;;;;2.45;2.22;;;;;;;22.13;61.85;98952.34;2048432;28;20113;-44
2022/10/10 03:47:59;;;;;;;2.60;2.40;;;;;;;22.13;61.97;98963.16;2050113;28;20046;-44
2022/10/10 03:49:01;;;;;;;2.50;2.30;;;;;;;22.11;61.93;98963.38;2048974;28;20054;-44
2022/10/10 03:50:02;;;;;;;2.78;2.13;;;;;;;22.12;61.79;98958.78;2051699;28;20061;-43
2022/10/10 03:51:05;;;;;;;3.15;2.13;;;;;;;22.13;61.87;98968.56;2052011;28;20054;-44
2022/10/10 03:52:05;;;;;;;3.35;2.60;;;;;;;22.12;61.83;98966.88;2049048;28;20071;-44
2022/10/10 03:53:07;;;;;;;3.40;2.60;;;;;;;22.12;62.03;98969.59;2051951;28;20050;-45
2022/10/10 03:54:08;;;;;;;2.75;2.25;;;;;;;22.12;61.80;98962.34;2052118;28;20051;-45
2022/10/10 03:55:10;;;;;;;2.58;2.33;;;;;;;22.11;61.89;98966.06;2052113;28;20073;-45
2022/10/10 03:56:11;;;;;;;3.88;3.08;;;;;;;22.11;61.86;98962.53;2049218;28;20107;-45
2022/10/10 03:57:12;;;;;;;2.58;2.13;;;;;;;22.12;61.79;98961.47;2046552;28;20124;-45
2022/10/10 03:58:13;;;;;;;2.35;2.08;;;;;;;22.12;61.80;98965.03;2053012;28;20051;-46
2022/10/10 03:59:15;;;;;;;2.45;2.10;;;;;;;22.12;61.67;98959.63;2052528;28;20088;-44
2022/10/10 04:00:16;;;;;;;2.60;2.40;;;;;;;22.11;61.95;98967.94;2052601;28;20149;-45
2022/10/10 04:01:17;;;;;;;3.15;2.70;;;;;;;22.11;61.82;98962.53;2046762;28;20085;-45
2022/10/10 04:02:18;;;;;;;5.93;2.30;;;;;;;22.12;61.72;98958.78;2050822;28;21352;-43
2022/10/10 04:03:21;;;;;;;2.50;2.30;;;;;;;22.12;61.66;98961.47;2052537;28;20051;-44
2022/10/10 04:04:22;;;;;;;2.22;2.03;;;;;;;22.12;61.76;98965.03;2049285;28;20054;-45
2022/10/10 04:05:24;;;;;;;2.47;2.08;;;;;;;22.12;61.85;98966.88;2051659;28;20044;-48
2022/10/10 04:06:26;;;;;;;2.83;2.30;;;;;;;22.11;61.86;98957.13;2043136;28;20042;-45
2022/10/10 04:07:28;;;;;;;3.30;2.20;;;;;;;22.11;61.78;98960.66;2046570;28;20096;-44
2022/10/10 04:08:29;;;;;;;3.08;2.03;;;;;;;22.11;61.97;98966.06;2046269;28;20062;-45
2022/10/10 04:09:31;;;;;;;2.30;2.10;;;;;;;22.13;61.69;98965.84;2051319;28;20210;-47
2022/10/10 04:10:31;;;;;;;2.15;1.92;;;;;;;22.11;62.05;98965.25;2051767;28;20231;-47
2022/10/10 04:11:35;;;;;;;2.78;2.28;;;;;;;22.11;61.77;98962.53;2052399;28;20113;-44
2022/10/10 04:12:35;;;;;;;2.30;2.10;;;;;;;22.11;61.82;98962.53;2050173;28;20130;-46
2022/10/10 04:13:37;;;;;;;2.95;2.10;;;;;;;22.09;61.81;98966.28;2043331;28;20054;-44
2022/10/10 04:14:38;;;;;;;4.30;2.75;;;;;;;22.10;61.78;98953.63;2047505;28;20108;-46
2022/10/10 04:15:40;;;;;;;3.50;2.33;;;;;;;22.10;61.73;98961.72;2052493;28;20448;-44
2022/10/10 04:16:40;;;;;;;2.97;2.17;;;;;;;22.11;61.95;98965.25;2049498;28;20043;-49
2022/10/10 04:17:42;;;;;;;2.70;2.25;;;;;;;22.09;61.85;98960.03;2047407;28;20057;-44
2022/10/10 04:18:44;;;;;;;3.20;2.15;;;;;;;22.09;61.96;98963.59;2043923;28;20124;-45
2022/10/10 04:19:46;;;;;;;2.22;2.03;;;;;;;22.11;61.83;98959.84;2043892;28;20812;-46
2022/10/10 04:20:47;;;;;;;2.30;2.10;;;;;;;22.11;61.67;98965.25;2049553;28;20053;-44
2022/10/10 04:21:48;;;;;;;2.38;2.13;;;;;;;22.10;61.89;98969.81;2050146;28;20047;-47
2022/10/10 04:22:49;;;;;;;2.53;2.25;;;;;;;22.10;61.73;98969.81;2047237;28;20054;-45
2022/10/10 04:23:51;;;;;;;2.35;2.15;;;;;;;22.09;61.76;98969.00;2048002;28;20054;-43
2022/10/10 04:24:51;;;;;;;2.78;1.98;;;;;;;22.08;61.83;98967.31;2049838;28;20058;-45
2022/10/10 04:25:53;;;;;;;3.33;2.50;;;;;;;22.10;61.85;98967.13;2047886;28;20059;-48
2022/10/10 04:26:54;;;;;;;2.72;2.17;;;;;;;22.09;61.81;98968.16;2049951;28;20046;-45
2022/10/10 04:27:56;;;;;;;2.35;2.13;;;;;;;22.09;61.98;98968.16;2052488;28;20046;-44
2022/10/10 04:28:57;;;;;;;2.50;2.15;;;;;;;22.09;61.80;98965.44;2048373;28;20054;-47
2022/10/10 04:29:58;;;;;;;4.38;2.15;;;;;;;22.08;61.81;98967.31;2051737;28;20054;-47
2022/10/10 04:30:59;;;;;;;2.78;2.00;;;;;;;22.09;61.87;98966.28;2045867;28;20044;-45
2022/10/10 04:32:01;;;;;;;2.47;2.00;;;;;;;22.09;61.83;98968.16;2051306;28;20056;-49
2022/10/10 04:33:01;;;;;;;2.05;1.85;;;;;;;22.08;62.07;98974.59;2051111;28;20054;-48
2022/10/10 04:34:04;;;;;;;2.55;1.85;;;;;;;22.09;61.75;98970.84;2053657;28;20050;-44
2022/10/10 04:35:05;;;;;;;2.38;2.05;;;;;;;22.08;62.00;98967.31;2052085;28;20085;-44
2022/10/10 04:36:08;;;;;;;3.35;2.55;;;;;;;22.07;61.83;98967.56;2052113;28;20079;-44
2022/10/10 04:37:08;;;;;;;3.22;2.58;;;;;;;22.07;61.75;98973.78;2046386;28;20763;-45
2022/10/10 04:38:10;;;;;;;2.58;2.28;;;;;;;22.07;61.78;98967.56;2049396;28;20054;-46
2022/10/10 04:39:11;;;;;;;2.20;1.88;;;;;;;22.07;61.55;98965.69;2039633;28;20054;-46
2022/10/10 04:40:12;;;;;;;4.53;2.40;;;;;;;22.07;61.71;98968.38;2047826;28;20058;-44
2022/10/10 04:41:13;;;;;;;2.88;2.40;;;;;;;22.07;61.94;98964.84;2049387;28;20062;-43
2022/10/10 04:42:15;;;;;;;2.50;2.30;;;;;;;22.07;62.02;98971.09;2048322;28;20684;-46
2022/10/10 04:43:16;;;;;;;3.33;2.25;;;;;;;22.07;61.75;98970.25;2045231;28;20061;-46
2022/10/10 04:44:19;;;;;;;2.90;2.00;;;;;;;22.08;61.82;98975.44;2047558;28;20121;-44
2022/10/10 04:45:19;;;;;;;2.45;1.95;;;;;;;22.07;61.98;98971.09;2044828;28;20116;-43
2022/10/10 04:46:21;;;;;;;2.60;2.38;;;;;;;22.07;61.93;98971.09;2046830;28;20058;-44
2022/10/10 04:47:22;;;;;;;4.03;2.30;;;;;;;22.06;61.78;98977.53;2045518;28;20468;-44
2022/10/10 04:48:24;;;;;;;4.00;2.60;;;;;;;22.08;61.72;98975.44;2049961;28;20046;-47
2022/10/10 04:49:26;;;;;;;4.20;2.38;;;;;;;22.08;61.79;98978.13;2047881;28;20088;-46
2022/10/10 04:50:28;;;;;;;2.97;2.45;;;;;;;22.07;61.97;98979.19;2048213;28;20129;-47
2022/10/10 04:51:28;;;;;;;2.90;2.20;;;;;;;22.07;61.84;98975.66;2046946;28;20061;-46
2022/10/10 04:52:30;;;;;;;3.03;2.53;;;;;;;22.07;61.73;98979.19;2048736;28;22396;-44
2022/10/10 04:53:31;;;;;;;2.58;2.10;;;;;;;22.07;61.71;98973.78;2049141;28;20055;-44
2022/10/10 04:54:33;;;;;;;2.33;2.03;;;;;;;22.06;61.64;98974.84;2047409;28;20125;-44
2022/10/10 04:55:33;;;;;;;3.30;2.30;;;;;;;22.05;61.68;98977.75;2051205;28;20057;-43
2022/10/10 04:56:35;;;;;;;2.05;1.75;;;;;;;22.04;61.83;98971.53;2047037;28;20078;-43
2022/10/10 04:57:36;;;;;;;4.22;2.25;;;;;;;22.07;61.79;98972.97;2045317;28;20124;-45
2022/10/10 04:58:38;;;;;;;2.45;1.98;;;;;;;22.07;61.84;98972.97;2048329;28;20058;-47
2022/10/10 04:59:38;;;;;;;2.97;2.13;;;;;;;22.06;61.95;98972.13;2047445;28;21059;-47
2022/10/10 05:00:40;;;;;;;2.53;2.30;;;;;;;22.05;61.62;98970.47;2047573;28;20046;-43